Time;durP1;ratioP1;P1;durP2;ratioP2;P2;SDS_P1;SDS_P2;PMS_P1;PMS_P2;Temp;Humidity;BMP_temperature;BMP_pressure;BME280_temperature;BME280_humidity;BME280_pressure;Samples;Min_cycle;Max_cycle;Signal;HPM_P1;HPM_P2
2023/07/22 00:00:47;;;;;;;;;;;;;;;;;;5085786;28;19977;-68
2023/07/22 00:03:13;;;;;;;;;;;;;;;;;;5089042;28;19923;-69
2023/07/22 00:05:39;;;;;;;;;;;;;;;;;;5070430;28;20291;-69
2023/07/22 00:08:04;;;;;;;;;;;;;;;;;;5085259;28;19923;-69
2023/07/22 00:10:30;;;;;;;;;;;;;;;;;;5087726;28;20398;-70
2023/07/22 00:12:55;;;;;;;;;;;;;;;;;;5089122;28;19926;-69
2023/07/22 00:15:22;;;;;;;;;;;;;;;;;;5085708;28;19919;-70
2023/07/22 00:17:47;;;;;;;;;;;;;;;;;;5085333;28;19916;-69
2023/07/22 00:20:14;;;;;;;;;;;;;;;;;;5090906;28;20093;-69
2023/07/22 00:22:42;;;;;;;;;;;;;;;;;;5085996;28;20262;-69
2023/07/22 00:25:10;;;;;;;;;;;;;;;;;;5084163;28;19931;-70
2023/07/22 00:27:36;;;;;;;;;;;;;;;;;;5087457;28;19959;-69
2023/07/22 00:30:01;;;;;;;;;;;;;;;;;;5089394;28;19956;-70
2023/07/22 00:32:26;;;;;;;;;;;;;;;;;;5083120;28;19963;-71
2023/07/22 00:34:52;;;;;;;;;;;;;;;;;;5070761;28;19924;-70
2023/07/22 00:37:17;;;;;;;;;;;;;;;;;;5088357;28;19915;-71
2023/07/22 00:39:42;;;;;;;;;;;;;;;;;;5085618;28;20310;-69
2023/07/22 00:42:08;;;;;;;;;;;;;;;;;;5079799;28;19927;-71
2023/07/22 00:44:33;;;;;;;;;;;;;;;;;;5086597;28;19998;-71
2023/07/22 00:46:59;;;;;;;;;;;;;;;;;;5084101;28;20360;-71
2023/07/22 00:49:25;;;;;;;;;;;;;;;;;;5086287;28;19912;-71
2023/07/22 00:51:50;;;;;;;;;;;;;;;;;;5082626;28;20325;-71
2023/07/22 00:54:16;;;;;;;;;;;;;;;;;;5084951;28;20007;-70
2023/07/22 00:56:41;;;;;;;;;;;;;;;;;;5085885;28;19918;-70
2023/07/22 00:59:07;;;;;;;;;;;;;;;;;;5087635;28;20248;-70
2023/07/22 01:01:32;;;;;;;;;;;;;;;;;;5087582;28;19920;-71
2023/07/22 01:03:57;;;;;;;;;;;;;;;;;;5083225;28;19962;-70
2023/07/22 01:06:24;;;;;;;;;;;;;;;;;;5082249;28;19970;-71
2023/07/22 01:08:49;;;;;;;;;;;;;;;;;;5084490;28;19912;-70
2023/07/22 01:11:15;;;;;;;;;;;;;;;;;;5084041;28;19926;-70
2023/07/22 01:13:40;;;;;;;;;;;;;;;;;;5082643;28;19923;-70
2023/07/22 01:16:06;;;;;;;;;;;;;;;;;;5086975;28;19916;-70
2023/07/22 01:18:32;;;;;;;;;;;;;;;;;;5085935;28;20502;-70
2023/07/22 01:20:58;;;;;;;;;;;;;;;;;;5082485;28;19920;-71
2023/07/22 01:23:23;;;;;;;;;;;;;;;;;;5081695;28;20314;-71
2023/07/22 01:25:48;;;;;;;;;;;;;;;;;;5081984;28;20019;-70
2023/07/22 01:28:14;;;;;;;;;;;;;;;;;;5085101;28;20498;-71
2023/07/22 01:30:39;;;;;;;;;;;;;;;;;;5082976;28;20416;-71
2023/07/22 01:33:05;;;;;;;;;;;;;;;;;;5084021;28;20340;-70
2023/07/22 01:35:30;;;;;;;;;;;;;;;;;;5080737;28;19931;-70
2023/07/22 01:37:55;;;;;;;;;;;;;;;;;;5069956;28;19981;-70
2023/07/22 01:40:23;;;;;;;;;;;;;;;;;;5084395;28;19962;-70
2023/07/22 01:42:48;;;;;;;;;;;;;;;;;;5086560;28;19912;-70
2023/07/22 01:45:14;;;;;;;;;;;;;;;;;;5083358;28;19919;-70
2023/07/22 01:47:40;;;;;;;;;;;;;;;;;;5081553;28;19916;-71
2023/07/22 01:50:10;;;;;;;;;;;;;;;;;;5080775;28;20431;-70
2023/07/22 01:52:35;;;;;;;;;;;;;;;;;;5086169;28;19951;-70
2023/07/22 01:55:01;;;;;;;;;;;;;;;;;;5087208;28;19974;-71
2023/07/22 01:57:26;;;;;;;;;;;;;;;;;;5083113;28;19924;-70
2023/07/22 01:59:51;;;;;;;;;;;;;;;;;;5083627;28;19916;-70
2023/07/22 02:02:16;;;;;;;;;;;;;;;;;;5086984;28;19922;-70
2023/07/22 02:04:42;;;;;;;;;;;;;;;;;;5086022;28;19912;-70
2023/07/22 02:07:07;;;;;;;;;;;;;;;;;;5087632;28;19915;-70
2023/07/22 02:09:35;;;;;;;;;;;;;;;;;;5083623;28;19912;-70
2023/07/22 02:12:01;;;;;;;;;;;;;;;;;;5085948;28;19959;-70
2023/07/22 02:14:26;;;;;;;;;;;;;;;;;;5085850;28;19959;-71
2023/07/22 02:16:51;;;;;;;;;;;;;;;;;;5083924;28;19911;-70
2023/07/22 02:19:16;;;;;;;;;;;;;;;;;;5085045;28;19920;-70
2023/07/22 02:21:42;;;;;;;;;;;;;;;;;;5080102;28;19916;-69
2023/07/22 02:24:08;;;;;;;;;;;;;;;;;;5079336;28;19916;-70
2023/07/22 02:26:33;;;;;;;;;;;;;;;;;;5085864;28;19917;-70
2023/07/22 02:28:58;;;;;;;;;;;;;;;;;;5083230;28;19920;-70
2023/07/22 02:31:25;;;;;;;;;;;;;;;;;;5082644;28;19912;-70
2023/07/22 02:33:50;;;;;;;;;;;;;;;;;;5082097;28;20593;-71
2023/07/22 02:36:15;;;;;;;;;;;;;;;;;;5080349;28;19991;-71
2023/07/22 02:38:41;;;;;;;;;;;;;;;;;;5082332;28;20301;-70
2023/07/22 02:41:07;;;;;;;;;;;;;;;;;;5080979;28;19923;-70
2023/07/22 02:43:33;;;;;;;;;;;;;;;;;;5083044;28;19916;-71
2023/07/22 02:46:03;;;;;;;;;;;;;;;;;;5079586;28;19912;-71
2023/07/22 02:48:28;;;;;;;;;;;;;;;;;;5082726;28;19920;-72
2023/07/22 02:50:53;;;;;;;;;;;;;;;;;;5064457;28;19912;-72
2023/07/22 02:53:19;;;;;;;;;;;;;;;;;;5082842;28;20579;-71
2023/07/22 02:55:46;;;;;;;;;;;;;;;;;;5061892;28;20058;-72
2023/07/22 02:58:11;;;;;;;;;;;;;;;;;;5083507;28;19981;-72
2023/07/22 03:00:36;;;;;;;;;;;;;;;;;;5080044;28;20371;-72
2023/07/22 03:03:02;;;;;;;;;;;;;;;;;;5082865;28;19916;-71
2023/07/22 03:05:28;;;;;;;;;;;;;;;;;;5080113;28;20260;-72
2023/07/22 03:07:53;;;;;;;;;;;;;;;;;;5083859;28;20044;-72
2023/07/22 03:10:19;;;;;;;;;;;;;;;;;;5068619;28;20370;-72
2023/07/22 03:12:44;;;;;;;;;;;;;;;;;;5084427;28;19923;-72
2023/07/22 03:15:09;;;;;;;;;;;;;;;;;;5078334;28;19930;-72
2023/07/22 03:17:36;;;;;;;;;;;;;;;;;;5082727;28;19991;-72
2023/07/22 03:20:04;;;;;;;;;;;;;;;;;;5083851;28;19951;-72
2023/07/22 03:22:31;;;;;;;;;;;;;;;;;;5085461;28;19920;-72
2023/07/22 03:24:56;;;;;;;;;;;;;;;;;;5087063;28;19938;-72
2023/07/22 03:27:21;;;;;;;;;;;;;;;;;;5087050;28;20382;-72
2023/07/22 03:29:47;;;;;;;;;;;;;;;;;;5081038;28;19912;-71
2023/07/22 03:32:12;;;;;;;;;;;;;;;;;;5086956;28;19916;-72
2023/07/22 03:34:37;;;;;;;;;;;;;;;;;;5069746;28;20014;-72
2023/07/22 03:37:02;;;;;;;;;;;;;;;;;;5065911;28;19922;-73
2023/07/22 03:39:28;;;;;;;;;;;;;;;;;;5084766;28;20573;-71
2023/07/22 03:41:53;;;;;;;;;;;;;;;;;;5087921;28;19916;-69
2023/07/22 03:44:18;;;;;;;;;;;;;;;;;;5085474;28;20313;-70
2023/07/22 03:46:43;;;;;;;;;;;;;;;;;;5084562;28;19946;-71
2023/07/22 03:49:09;;;;;;;;;;;;;;;;;;5084175;28;19915;-69
2023/07/22 03:51:34;;;;;;;;;;;;;;;;;;5084707;28;19926;-69
2023/07/22 03:54:00;;;;;;;;;;;;;;;;;;5083875;28;19915;-69
2023/07/22 03:56:25;;;;;;;;;;;;;;;;;;5081609;28;19927;-69
2023/07/22 03:58:51;;;;;;;;;;;;;;;;;;5084383;28;19920;-72
2023/07/22 04:01:16;;;;;;;;;;;;;;;;;;5086361;28;19946;-73
2023/07/22 04:03:41;;;;;;;;;;;;;;;;;;5079426;28;19977;-72
2023/07/22 04:06:07;;;;;;;;;;;;;;;;;;5084212;28;19927;-73
2023/07/22 04:08:32;;;;;;;;;;;;;;;;;;5067421;28;20061;-73
2023/07/22 04:10:58;;;;;;;;;;;;;;;;;;5083551;28;19930;-72
2023/07/22 04:13:24;;;;;;;;;;;;;;;;;;5082856;28;19912;-69
2023/07/22 04:15:49;;;;;;;;;;;;;;;;;;5083598;28;19945;-70
2023/07/22 04:18:18;;;;;;;;;;;;;;;;;;5086039;28;20511;-70
2023/07/22 04:20:44;;;;;;;;;;;;;;;;;;5082251;28;19919;-71
2023/07/22 04:23:09;;;;;;;;;;;;;;;;;;5083442;28;19926;-70
2023/07/22 04:25:41;;;;;;;;;;;;;;;;;;5068689;28;19911;-70
2023/07/22 04:28:08;;;;;;;;;;;;;;;;;;5082911;28;19927;-71
2023/07/22 04:30:33;;;;;;;;;;;;;;;;;;5080851;28;19919;-70
2023/07/22 04:32:58;;;;;;;;;;;;;;;;;;5082764;28;20260;-70
2023/07/22 04:35:24;;;;;;;;;;;;;;;;;;5083946;28;19927;-71
2023/07/22 04:37:49;;;;;;;;;;;;;;;;;;5079727;28;19923;-69
2023/07/22 04:40:16;;;;;;;;;;;;;;;;;;5079915;28;20391;-69
2023/07/22 04:42:42;;;;;;;;;;;;;;;;;;5080883;28;19919;-65
2023/07/22 04:45:09;;;;;;;;;;;;;;;;;;5084272;28;19916;-65
2023/07/22 04:47:35;;;;;;;;;;;;;;;;;;5079539;28;19908;-69
2023/07/22 04:50:00;;;;;;;;;;;;;;;;;;5086124;28;19923;-69
2023/07/22 04:52:25;;;;;;;;;;;;;;;;;;5063629;28;19926;-69
2023/07/22 04:54:51;;;;;;;;;;;;;;;;;;5082709;28;19916;-64
2023/07/22 04:57:16;;;;;;;;;;;;;;;;;;5082971;28;19912;-65
2023/07/22 04:59:42;;;;;;;;;;;;;;;;;;5061559;28;19922;-65
2023/07/22 05:02:07;;;;;;;;;;;;;;;;;;5067163;28;19916;-65
2023/07/22 05:04:33;;;;;;;;;;;;;;;;;;5082298;28;19916;-69
2023/07/22 05:06:58;;;;;;;;;;;;;;;;;;5082670;28;19912;-69
2023/07/22 05:09:23;;;;;;;;;;;;;;;;;;5066511;28;20010;-65
2023/07/22 05:11:49;;;;;;;;;;;;;;;;;;5083281;28;19911;-65
2023/07/22 05:14:14;;;;;;;;;;;;;;;;;;5084787;28;20398;-71
2023/07/22 05:16:40;;;;;;;;;;;;;;;;;;5083324;28;19992;-69
2023/07/22 05:19:07;;;;;;;;;;;;;;;;;;5082548;28;19919;-68
2023/07/22 05:21:33;;;;;;;;;;;;;;;;;;5064892;28;19916;-65
2023/07/22 05:23:58;;;;;;;;;;;;;;;;;;5082187;28;20011;-64
2023/07/22 05:26:23;;;;;;;;;;;;;;;;;;5067525;28;19926;-64
2023/07/22 05:28:49;;;;;;;;;;;;;;;;;;5082789;28;19963;-64
2023/07/22 05:31:15;;;;;;;;;;;;;;;;;;5084599;28;19916;-64
2023/07/22 05:33:40;;;;;;;;;;;;;;;;;;5085529;28;19995;-64
2023/07/22 05:36:06;;;;;;;;;;;;;;;;;;5085035;28;19912;-64
2023/07/22 05:38:31;;;;;;;;;;;;;;;;;;5081506;28;20419;-64
2023/07/22 05:40:56;;;;;;;;;;;;;;;;;;5079548;28;19970;-64
2023/07/22 05:43:22;;;;;;;;;;;;;;;;;;5078437;28;19916;-64
2023/07/22 05:45:47;;;;;;;;;;;;;;;;;;5080577;28;19920;-69
2023/07/22 05:48:12;;;;;;;;;;;;;;;;;;5081682;28;19911;-64
2023/07/22 05:50:37;;;;;;;;;;;;;;;;;;5080265;28;19924;-65
2023/07/22 05:53:03;;;;;;;;;;;;;;;;;;5080533;28;19912;-65
2023/07/22 05:55:28;;;;;;;;;;;;;;;;;;5080992;28;20295;-65
2023/07/22 05:57:54;;;;;;;;;;;;;;;;;;5083313;28;20049;-65
2023/07/22 06:00:19;;;;;;;;;;;;;;;;;;5087526;28;20444;-69
2023/07/22 06:02:44;;;;;;;;;;;;;;;;;;5080786;28;19924;-65
2023/07/22 06:05:10;;;;;;;;;;;;;;;;;;5085587;28;19977;-65
2023/07/22 06:07:36;;;;;;;;;;;;;;;;;;5064801;28;19988;-71
2023/07/22 06:10:01;;;;;;;;;;;;;;;;;;5069696;28;19939;-65
2023/07/22 06:12:28;;;;;;;;;;;;;;;;;;5067978;28;19982;-65
2023/07/22 06:14:53;;;;;;;;;;;;;;;;;;5081054;28;19916;-65
2023/07/22 06:17:20;;;;;;;;;;;;;;;;;;5080658;28;19912;-65
2023/07/22 06:19:45;;;;;;;;;;;;;;;;;;5082945;28;19926;-65
2023/07/22 06:22:10;;;;;;;;;;;;;;;;;;5081786;28;20309;-69
2023/07/22 06:24:36;;;;;;;;;;;;;;;;;;5086315;28;19912;-69
2023/07/22 06:27:01;;;;;;;;;;;;;;;;;;5080732;28;20407;-70
2023/07/22 06:29:26;;;;;;;;;;;;;;;;;;5061652;28;19965;-66
2023/07/22 06:32:00;;;;;;;;;;;;;;;;;;5084326;28;20400;-73
2023/07/22 06:34:25;;;;;;;;;;;;;;;;;;5085689;28;19976;-72
2023/07/22 06:36:50;;;;;;;;;;;;;;;;;;5084019;28;20624;-73
2023/07/22 06:39:16;;;;;;;;;;;;;;;;;;5066971;28;19915;-72
2023/07/22 06:41:41;;;;;;;;;;;;;;;;;;5083231;28;19964;-72
2023/07/22 06:44:06;;;;;;;;;;;;;;;;;;5084543;28;19920;-72
2023/07/22 06:46:32;;;;;;;;;;;;;;;;;;5080844;28;19912;-72
2023/07/22 06:48:57;;;;;;;;;;;;;;;;;;5082645;28;20336;-74
2023/07/22 06:51:22;;;;;;;;;;;;;;;;;;5066049;28;19950;-74
2023/07/22 06:53:48;;;;;;;;;;;;;;;;;;5083130;28;19999;-74
2023/07/22 06:56:13;;;;;;;;;;;;;;;;;;5088858;28;20476;-74
2023/07/22 06:58:38;;;;;;;;;;;;;;;;;;5087904;28;19912;-74
2023/07/22 07:01:03;;;;;;;;;;;;;;;;;;5086986;28;19916;-73
2023/07/22 07:03:29;;;;;;;;;;;;;;;;;;5085391;28;19916;-73
2023/07/22 07:05:55;;;;;;;;;;;;;;;;;;5088444;28;19922;-72
2023/07/22 07:08:20;;;;;;;;;;;;;;;;;;5085417;28;20007;-72
2023/07/22 07:10:46;;;;;;;;;;;;;;;;;;5073427;28;20011;-72
2023/07/22 07:13:11;;;;;;;;;;;;;;;;;;5085714;28;19946;-71
2023/07/22 07:15:36;;;;;;;;;;;;;;;;;;5088588;28;19912;-70
2023/07/22 07:18:02;;;;;;;;;;;;;;;;;;5068908;28;20467;-71
2023/07/22 07:20:27;;;;;;;;;;;;;;;;;;5088812;28;19915;-71
2023/07/22 07:22:52;;;;;;;;;;;;;;;;;;5089082;28;19916;-69
2023/07/22 07:25:17;;;;;;;;;;;;;;;;;;5087965;28;20027;-69
2023/07/22 07:27:43;;;;;;;;;;;;;;;;;;5088618;28;19912;-69
2023/07/22 07:30:09;;;;;;;;;;;;;;;;;;5086806;28;20497;-69
2023/07/22 07:32:35;;;;;;;;;;;;;;;;;;5088473;28;19916;-69
2023/07/22 07:35:00;;;;;;;;;;;;;;;;;;5084708;28;19912;-69
2023/07/22 07:37:26;;;;;;;;;;;;;;;;;;5071815;28;19923;-69
2023/07/22 07:39:51;;;;;;;;;;;;;;;;;;5082671;28;19920;-69
2023/07/22 07:42:16;;;;;;;;;;;;;;;;;;5088852;28;19916;-68
2023/07/22 07:44:42;;;;;;;;;;;;;;;;;;5056604;28;19978;-70
2023/07/22 07:47:07;;;;;;;;;;;;;;;;;;5083323;28;19923;-72
2023/07/22 07:49:33;;;;;;;;;;;;;;;;;;5083833;28;19999;-73
2023/07/22 07:51:58;;;;;;;;;;;;;;;;;;5086392;28;19919;-74
2023/07/22 07:54:23;;;;;;;;;;;;;;;;;;5083441;28;19920;-71
2023/07/22 07:56:49;;;;;;;;;;;;;;;;;;5092208;28;19991;-71
2023/07/22 07:59:14;;;;;;;;;;;;;;;;;;5085232;28;19916;-71
2023/07/22 08:01:41;;;;;;;;;;;;;;;;;;5087311;28;19963;-71
2023/07/22 08:04:07;;;;;;;;;;;;;;;;;;5087525;28;20008;-71
2023/07/22 08:06:33;;;;;;;;;;;;;;;;;;5086824;28;19973;-70
2023/07/22 08:08:58;;;;;;;;;;;;;;;;;;5079502;28;20310;-70
2023/07/22 08:11:24;;;;;;;;;;;;;;;;;;5086873;28;19912;-71
2023/07/22 08:13:51;;;;;;;;;;;;;;;;;;5086594;28;19969;-71
2023/07/22 08:16:16;;;;;;;;;;;;;;;;;;5086523;28;19927;-71
2023/07/22 08:18:41;;;;;;;;;;;;;;;;;;5079621;28;20019;-72
2023/07/22 08:21:07;;;;;;;;;;;;;;;;;;5087685;28;20466;-72
2023/07/22 08:23:33;;;;;;;;;;;;;;;;;;5087785;28;19911;-71
2023/07/22 08:25:58;;;;;;;;;;;;;;;;;;5084618;28;19927;-72
2023/07/22 08:28:23;;;;;;;;;;;;;;;;;;5084775;28;19912;-72
2023/07/22 08:30:49;;;;;;;;;;;;;;;;;;5087435;28;19915;-70
2023/07/22 08:33:14;;;;;;;;;;;;;;;;;;5089586;28;19916;-70
2023/07/22 08:35:39;;;;;;;;;;;;;;;;;;5082756;28;19920;-71
2023/07/22 08:38:05;;;;;;;;;;;;;;;;;;5086047;28;19915;-72
2023/07/22 08:40:34;;;;;;;;;;;;;;;;;;5086778;28;19924;-72
2023/07/22 08:43:00;;;;;;;;;;;;;;;;;;5083460;28;19929;-73
2023/07/22 08:45:28;;;;;;;;;;;;;;;;;;5083561;28;20391;-73
2023/07/22 08:47:54;;;;;;;;;;;;;;;;;;5085776;28;19912;-73
2023/07/22 08:50:20;;;;;;;;;;;;;;;;;;5086817;28;19912;-73
2023/07/22 08:52:46;;;;;;;;;;;;;;;;;;5084691;28;19963;-69
2023/07/22 08:55:12;;;;;;;;;;;;;;;;;;5079637;28;19912;-69
2023/07/22 08:57:38;;;;;;;;;;;;;;;;;;5084172;28;19950;-69
2023/07/22 09:00:05;;;;;;;;;;;;;;;;;;5080350;28;19924;-70
2023/07/22 09:02:32;;;;;;;;;;;;;;;;;;5085816;28;19920;-70
2023/07/22 09:04:58;;;;;;;;;;;;;;;;;;5086227;28;20013;-70
2023/07/22 09:07:23;;;;;;;;;;;;;;;;;;5082718;28;20445;-69
2023/07/22 09:09:49;;;;;;;;;;;;;;;;;;5085998;28;20550;-70
2023/07/22 09:12:14;;;;;;;;;;;;;;;;;;5086966;28;19915;-71
2023/07/22 09:14:40;;;;;;;;;;;;;;;;;;5084200;28;19920;-71
2023/07/22 09:17:05;;;;;;;;;;;;;;;;;;5064831;28;19939;-71
2023/07/22 09:19:31;;;;;;;;;;;;;;;;;;5085121;28;19923;-70
2023/07/22 09:21:58;;;;;;;;;;;;;;;;;;5078588;28;19927;-70
2023/07/22 09:24:24;;;;;;;;;;;;;;;;;;5083549;28;19916;-71
2023/07/22 09:26:50;;;;;;;;;;;;;;;;;;5083207;28;20003;-71
2023/07/22 09:29:15;;;;;;;;;;;;;;;;;;5082554;28;20381;-71
2023/07/22 09:31:51;;;;;;;;;;;;;;;;;;5080900;28;19968;-71
2023/07/22 09:34:16;;;;;;;;;;;;;;;;;;5081704;28;19965;-72
2023/07/22 09:36:49;;;;;;;;;;;;;;;;;;5086315;28;19965;-71
2023/07/22 09:39:15;;;;;;;;;;;;;;;;;;5086279;28;19961;-71
2023/07/22 09:41:41;;;;;;;;;;;;;;;;;;5083269;28;19963;-71
2023/07/22 09:44:09;;;;;;;;;;;;;;;;;;5086212;28;20014;-73
2023/07/22 09:46:34;;;;;;;;;;;;;;;;;;5088957;28;20362;-73
2023/07/22 09:49:02;;;;;;;;;;;;;;;;;;5087204;28;19955;-73
2023/07/22 09:51:32;;;;;;;;;;;;;;;;;;5081048;28;19939;-73
2023/07/22 09:54:01;;;;;;;;;;;;;;;;;;5083284;28;19926;-72
2023/07/22 09:56:26;;;;;;;;;;;;;;;;;;5086791;28;19922;-72
2023/07/22 09:58:52;;;;;;;;;;;;;;;;;;5083799;28;19916;-73
2023/07/22 10:01:23;;;;;;;;;;;;;;;;;;5046232;28;19916;-72
2023/07/22 10:03:51;;;;;;;;;;;;;;;;;;5087772;28;19931;-72
2023/07/22 10:06:16;;;;;;;;;;;;;;;;;;5084420;28;19919;-71
2023/07/22 10:08:43;;;;;;;;;;;;;;;;;;5082958;28;19911;-72
2023/07/22 10:11:10;;;;;;;;;;;;;;;;;;5083158;28;19916;-70
2023/07/22 10:13:35;;;;;;;;;;;;;;;;;;5083685;28;19998;-70
2023/07/22 10:16:02;;;;;;;;;;;;;;;;;;5082703;28;22318;-70
2023/07/22 10:18:27;;;;;;;;;;;;;;;;;;5073416;28;19923;-69
2023/07/22 10:20:53;;;;;;;;;;;;;;;;;;5085641;28;20358;-68
2023/07/22 10:23:18;;;;;;;;;;;;;;;;;;5085584;28;19939;-71
2023/07/22 10:25:44;;;;;;;;;;;;;;;;;;5083862;28;20088;-69
2023/07/22 10:28:10;;;;;;;;;;;;;;;;;;5084867;28;20431;-69
2023/07/22 10:30:36;;;;;;;;;;;;;;;;;;5090494;28;20345;-69
2023/07/22 10:33:01;;;;;;;;;;;;;;;;;;5090034;28;19920;-70
2023/07/22 10:35:29;;;;;;;;;;;;;;;;;;5087588;28;19911;-67
2023/07/22 10:37:55;;;;;;;;;;;;;;;;;;5085061;28;19912;-69
2023/07/22 10:40:29;;;;;;;;;;;;;;;;;;5088936;28;19923;-67
2023/07/22 10:42:55;;;;;;;;;;;;;;;;;;5090366;28;19915;-68
2023/07/22 10:45:24;;;;;;;;;;;;;;;;;;5088049;28;19943;-68
2023/07/22 10:48:00;;;;;;;;;;;;;;;;;;5084682;28;19912;-68
2023/07/22 10:50:37;;;;;;;;;;;;;;;;;;5085936;28;19916;-68
2023/07/22 10:53:02;;;;;;;;;;;;;;;;;;5071480;28;19947;-68
2023/07/22 10:55:27;;;;;;;;;;;;;;;;;;5091106;28;19912;-68
2023/07/22 10:57:55;;;;;;;;;;;;;;;;;;5083148;28;20398;-68
2023/07/22 11:00:21;;;;;;;;;;;;;;;;;;5089841;28;20281;-70
2023/07/22 11:02:48;;;;;;;;;;;;;;;;;;5071112;28;20237;-70
2023/07/22 11:05:16;;;;;;;;;;;;;;;;;;5073157;28;19916;-70
2023/07/22 11:07:45;;;;;;;;;;;;;;;;;;5088603;28;19920;-68
2023/07/22 11:10:10;;;;;;;;;;;;;;;;;;5083989;28;19952;-68
2023/07/22 11:12:38;;;;;;;;;;;;;;;;;;5087483;28;19911;-68
2023/07/22 11:15:05;;;;;;;;;;;;;;;;;;5092937;28;19924;-68
2023/07/22 11:17:31;;;;;;;;;;;;;;;;;;5088388;28;20338;-69
2023/07/22 11:19:57;;;;;;;;;;;;;;;;;;5089184;28;19923;-68
2023/07/22 11:22:22;;;;;;;;;;;;;;;;;;5083314;28;19998;-72
2023/07/22 11:24:47;;;;;;;;;;;;;;;;;;5071589;28;20347;-72
2023/07/22 11:27:13;;;;;;;;;;;;;;;;;;5090845;28;19931;-71
2023/07/22 11:29:39;;;;;;;;;;;;;;;;;;5091009;28;19912;-70
2023/07/22 11:32:05;;;;;;;;;;;;;;;;;;5063977;28;19924;-74
2023/07/22 11:34:31;;;;;;;;;;;;;;;;;;5086806;28;19988;-75
2023/07/22 11:36:57;;;;;;;;;;;;;;;;;;5084123;28;19919;-72
2023/07/22 11:39:27;;;;;;;;;;;;;;;;;;5056348;28;19912;-70
2023/07/22 11:41:52;;;;;;;;;;;;;;;;;;5080148;28;20500;-69
2023/07/22 11:44:19;;;;;;;;;;;;;;;;;;5067753;28;19977;-70
2023/07/22 11:47:04;;;;;;;;;;;;;;;;;;5086206;28;20003;-70
2023/07/22 11:49:30;;;;;;;;;;;;;;;;;;5089200;28;19916;-69
2023/07/22 11:52:08;;;;;;;;;;;;;;;;;;5083397;28;19916;-70
2023/07/22 11:54:40;;;;;;;;;;;;;;;;;;5088073;28;19916;-68
2023/07/22 11:57:18;;;;;;;;;;;;;;;;;;5087531;28;19958;-69
2023/07/22 11:59:45;;;;;;;;;;;;;;;;;;5091307;28;19926;-68
2023/07/22 12:02:17;;;;;;;;;;;;;;;;;;5071862;28;19915;-67
2023/07/22 12:04:50;;;;;;;;;;;;;;;;;;5073642;28;19916;-68
2023/07/22 12:07:25;;;;;;;;;;;;;;;;;;5085212;28;19916;-69
2023/07/22 12:09:51;;;;;;;;;;;;;;;;;;5090866;28;19935;-67
2023/07/22 12:12:17;;;;;;;;;;;;;;;;;;5069113;28;20317;-68
2023/07/22 12:14:42;;;;;;;;;;;;;;;;;;5071323;28;19962;-69
2023/07/22 12:17:10;;;;;;;;;;;;;;;;;;5084234;28;20014;-67
2023/07/22 12:19:35;;;;;;;;;;;;;;;;;;5085922;28;19926;-69
2023/07/22 12:22:01;;;;;;;;;;;;;;;;;;5073010;28;19916;-68
2023/07/22 12:24:27;;;;;;;;;;;;;;;;;;5089873;28;20375;-70
2023/07/22 12:26:53;;;;;;;;;;;;;;;;;;5070076;28;19923;-68
2023/07/22 12:29:18;;;;;;;;;;;;;;;;;;5082779;28;19976;-68
2023/07/22 12:31:43;;;;;;;;;;;;;;;;;;5090971;28;19973;-67
2023/07/22 12:34:09;;;;;;;;;;;;;;;;;;5088699;28;19918;-68
2023/07/22 12:36:34;;;;;;;;;;;;;;;;;;5086254;28;19916;-68
2023/07/22 12:38:59;;;;;;;;;;;;;;;;;;5090713;28;19927;-68
2023/07/22 12:41:24;;;;;;;;;;;;;;;;;;5088493;28;19916;-67
2023/07/22 12:43:50;;;;;;;;;;;;;;;;;;5082848;28;19920;-69
2023/07/22 12:46:16;;;;;;;;;;;;;;;;;;5071521;28;19968;-67
2023/07/22 12:48:41;;;;;;;;;;;;;;;;;;5089204;28;19912;-67
2023/07/22 12:51:06;;;;;;;;;;;;;;;;;;5089838;28;20546;-68
2023/07/22 12:53:32;;;;;;;;;;;;;;;;;;5090682;28;19942;-66
2023/07/22 12:55:57;;;;;;;;;;;;;;;;;;5089045;28;20267;-68
2023/07/22 12:58:22;;;;;;;;;;;;;;;;;;5055017;28;19916;-69
2023/07/22 13:00:48;;;;;;;;;;;;;;;;;;5069792;28;19915;-69
2023/07/22 13:03:13;;;;;;;;;;;;;;;;;;5085172;28;19923;-67
2023/07/22 13:05:38;;;;;;;;;;;;;;;;;;5086825;28;19974;-66
2023/07/22 13:08:03;;;;;;;;;;;;;;;;;;5083480;28;20433;-70
2023/07/22 13:10:29;;;;;;;;;;;;;;;;;;5088709;28;19912;-67
2023/07/22 13:12:54;;;;;;;;;;;;;;;;;;5083066;28;19927;-68
2023/07/22 13:15:20;;;;;;;;;;;;;;;;;;5068325;28;19920;-67
2023/07/22 13:17:45;;;;;;;;;;;;;;;;;;5083788;28;20326;-67
2023/07/22 13:20:11;;;;;;;;;;;;;;;;;;5082101;28;19916;-67
2023/07/22 13:22:37;;;;;;;;;;;;;;;;;;5083679;28;19916;-67
2023/07/22 13:25:03;;;;;;;;;;;;;;;;;;5054152;28;19919;-67
2023/07/22 13:27:28;;;;;;;;;;;;;;;;;;5066860;28;20395;-68
2023/07/22 13:29:53;;;;;;;;;;;;;;;;;;5082569;28;19916;-67
2023/07/22 13:32:19;;;;;;;;;;;;;;;;;;5070899;28;19935;-66
2023/07/22 13:34:44;;;;;;;;;;;;;;;;;;5071054;28;20123;-66
2023/07/22 13:37:09;;;;;;;;;;;;;;;;;;5068876;28;19916;-66
2023/07/22 13:39:34;;;;;;;;;;;;;;;;;;5076764;28;19915;-66
2023/07/22 13:42:00;;;;;;;;;;;;;;;;;;5088551;28;19935;-65
2023/07/22 13:44:25;;;;;;;;;;;;;;;;;;5085785;28;20010;-66
2023/07/22 13:46:50;;;;;;;;;;;;;;;;;;5081206;28;19973;-69
2023/07/22 13:49:15;;;;;;;;;;;;;;;;;;5085987;28;19911;-69
2023/07/22 13:51:41;;;;;;;;;;;;;;;;;;5084434;28;20282;-68
2023/07/22 13:54:06;;;;;;;;;;;;;;;;;;5086480;28;20433;-68
2023/07/22 13:56:31;;;;;;;;;;;;;;;;;;5088790;28;19911;-68
2023/07/22 13:58:58;;;;;;;;;;;;;;;;;;5084985;28;20254;-65
2023/07/22 14:01:23;;;;;;;;;;;;;;;;;;5084063;28;19927;-64
2023/07/22 14:03:49;;;;;;;;;;;;;;;;;;5083141;28;20216;-65
2023/07/22 14:06:14;;;;;;;;;;;;;;;;;;5084862;28;19947;-66
2023/07/22 14:08:39;;;;;;;;;;;;;;;;;;5090385;28;20491;-66
2023/07/22 14:11:04;;;;;;;;;;;;;;;;;;5084356;28;19988;-67
2023/07/22 14:13:30;;;;;;;;;;;;;;;;;;5085384;28;20328;-67
2023/07/22 14:15:55;;;;;;;;;;;;;;;;;;5085613;28;20571;-67
2023/07/22 14:18:20;;;;;;;;;;;;;;;;;;5087482;28;20014;-67
2023/07/22 14:20:45;;;;;;;;;;;;;;;;;;5085017;28;19920;-67
2023/07/22 14:23:11;;;;;;;;;;;;;;;;;;5089647;28;19938;-67
2023/07/22 14:25:36;;;;;;;;;;;;;;;;;;5084279;28;19955;-67
2023/07/22 14:28:02;;;;;;;;;;;;;;;;;;5085201;28;19999;-67
2023/07/22 14:30:27;;;;;;;;;;;;;;;;;;5085153;28;20267;-67
2023/07/22 14:32:52;;;;;;;;;;;;;;;;;;5085976;28;20302;-66
2023/07/22 14:35:18;;;;;;;;;;;;;;;;;;5084616;28;19912;-66
2023/07/22 14:37:44;;;;;;;;;;;;;;;;;;5065758;28;20039;-67
2023/07/22 14:40:10;;;;;;;;;;;;;;;;;;5081206;28;19916;-67
2023/07/22 14:42:35;;;;;;;;;;;;;;;;;;5083990;28;19926;-67
2023/07/22 14:45:00;;;;;;;;;;;;;;;;;;5083799;28;19916;-67
2023/07/22 14:47:26;;;;;;;;;;;;;;;;;;5084815;28;19915;-67
2023/07/22 14:49:51;;;;;;;;;;;;;;;;;;5081534;28;20247;-66
2023/07/22 14:52:17;;;;;;;;;;;;;;;;;;5082422;28;19958;-68
2023/07/22 14:54:43;;;;;;;;;;;;;;;;;;5070713;28;20327;-68
2023/07/22 14:57:08;;;;;;;;;;;;;;;;;;5070965;28;19926;-70
2023/07/22 14:59:34;;;;;;;;;;;;;;;;;;5083188;28;19976;-67
2023/07/22 15:01:59;;;;;;;;;;;;;;;;;;5086990;28;19912;-67
2023/07/22 15:04:24;;;;;;;;;;;;;;;;;;5085203;28;19959;-67
2023/07/22 15:06:50;;;;;;;;;;;;;;;;;;5065281;28;20383;-69
2023/07/22 15:09:15;;;;;;;;;;;;;;;;;;5088745;28;19926;-66
2023/07/22 15:11:40;;;;;;;;;;;;;;;;;;5086843;28;20164;-68
2023/07/22 15:14:05;;;;;;;;;;;;;;;;;;5084360;28;19916;-68
2023/07/22 15:16:31;;;;;;;;;;;;;;;;;;5090348;28;19999;-69
2023/07/22 15:18:57;;;;;;;;;;;;;;;;;;5089791;28;20392;-71
2023/07/22 15:21:22;;;;;;;;;;;;;;;;;;5093476;28;20565;-69
2023/07/22 15:23:47;;;;;;;;;;;;;;;;;;5075053;28;19927;-68
2023/07/22 15:26:13;;;;;;;;;;;;;;;;;;5088656;28;20002;-69
2023/07/22 15:28:39;;;;;;;;;;;;;;;;;;5071472;28;20062;-68
2023/07/22 15:31:05;;;;;;;;;;;;;;;;;;5089016;28;19920;-67
2023/07/22 15:33:30;;;;;;;;;;;;;;;;;;5087875;28;19924;-68
2023/07/22 15:35:56;;;;;;;;;;;;;;;;;;5084887;28;19916;-67
2023/07/22 15:38:22;;;;;;;;;;;;;;;;;;5089100;28;19923;-69
2023/07/22 15:40:47;;;;;;;;;;;;;;;;;;5084900;28;19979;-68
2023/07/22 15:43:13;;;;;;;;;;;;;;;;;;5088539;28;20263;-67
2023/07/22 15:45:38;;;;;;;;;;;;;;;;;;5091776;28;19912;-69
2023/07/22 15:48:05;;;;;;;;;;;;;;;;;;5087651;28;20006;-69
2023/07/22 15:50:31;;;;;;;;;;;;;;;;;;5081552;28;19950;-66
2023/07/22 15:52:57;;;;;;;;;;;;;;;;;;5083254;28;20332;-66
2023/07/22 15:55:22;;;;;;;;;;;;;;;;;;5055154;28;19927;-64
2023/07/22 15:57:48;;;;;;;;;;;;;;;;;;5070455;28;20267;-65
2023/07/22 16:00:13;;;;;;;;;;;;;;;;;;5084979;28;19916;-65
2023/07/22 16:02:39;;;;;;;;;;;;;;;;;;5087010;28;20326;-65
2023/07/22 16:05:04;;;;;;;;;;;;;;;;;;5084612;28;19922;-64
2023/07/22 16:07:31;;;;;;;;;;;;;;;;;;5089194;28;20033;-65
2023/07/22 16:09:56;;;;;;;;;;;;;;;;;;5085737;28;19920;-65
2023/07/22 16:12:21;;;;;;;;;;;;;;;;;;5086693;28;19912;-67
2023/07/22 16:14:47;;;;;;;;;;;;;;;;;;5086131;28;19911;-66
2023/07/22 16:17:12;;;;;;;;;;;;;;;;;;5088406;28;19920;-67
2023/07/22 16:19:38;;;;;;;;;;;;;;;;;;5089966;28;19916;-67
2023/07/22 16:22:03;;;;;;;;;;;;;;;;;;5087837;28;19916;-66
2023/07/22 16:24:28;;;;;;;;;;;;;;;;;;5085189;28;19912;-66
2023/07/22 16:26:54;;;;;;;;;;;;;;;;;;5086529;28;19919;-66
2023/07/22 16:29:19;;;;;;;;;;;;;;;;;;5081603;28;19916;-66
2023/07/22 16:31:45;;;;;;;;;;;;;;;;;;5086193;28;19967;-68
2023/07/22 16:34:11;;;;;;;;;;;;;;;;;;5087471;28;19981;-67
2023/07/22 16:36:36;;;;;;;;;;;;;;;;;;5084939;28;19922;-67